sensor_id;sensor_type;location;lat;lon;timestamp;temperature;humidity
42095;DHT22;27753;55.724;37.612;2022-10-15T00:00:50;8.00;90.30
42095;DHT22;27753;55.724;37.612;2022-10-15T00:03:16;8.00;90.30
42095;DHT22;27753;55.724;37.612;2022-10-15T00:05:42;8.00;90.40
42095;DHT22;27753;55.724;37.612;2022-10-15T00:08:09;8.00;90.40
42095;DHT22;27753;55.724;37.612;2022-10-15T00:10:36;8.00;90.50
42095;DHT22;27753;55.724;37.612;2022-10-15T00:13:03;8.00;90.50
42095;DHT22;27753;55.724;37.612;2022-10-15T00:15:30;8.00;90.50
42095;DHT22;27753;55.724;37.612;2022-10-15T00:17:56;8.00;90.50
42095;DHT22;27753;55.724;37.612;2022-10-15T00:20:22;8.00;90.50
42095;DHT22;27753;55.724;37.612;2022-10-15T00:22:48;8.00;90.50
42095;DHT22;27753;55.724;37.612;2022-10-15T00:25:14;8.00;90.50
42095;DHT22;27753;55.724;37.612;2022-10-15T00:27:39;8.00;90.50
42095;DHT22;27753;55.724;37.612;2022-10-15T00:30:06;8.00;90.40
42095;DHT22;27753;55.724;37.612;2022-10-15T00:32:32;8.00;90.40
42095;DHT22;27753;55.724;37.612;2022-10-15T00:34:58;7.90;90.40
42095;DHT22;27753;55.724;37.612;2022-10-15T00:37:24;7.90;90.40
42095;DHT22;27753;55.724;37.612;2022-10-15T00:39:50;7.90;90.30
42095;DHT22;27753;55.724;37.612;2022-10-15T00:42:16;7.90;90.40
42095;DHT22;27753;55.724;37.612;2022-10-15T00:47:16;7.90;90.20
42095;DHT22;27753;55.724;37.612;2022-10-15T00:55:17;8.00;90.00
42095;DHT22;27753;55.724;37.612;2022-10-15T00:57:49;8.00;89.70
42095;DHT22;27753;55.724;37.612;2022-10-15T01:00:16;8.00;89.70
42095;DHT22;27753;55.724;37.612;2022-10-15T01:02:43;8.00;89.60
42095;DHT22;27753;55.724;37.612;2022-10-15T01:05:11;8.00;89.50
42095;DHT22;27753;55.724;37.612;2022-10-15T01:07:38;8.10;89.70
42095;DHT22;27753;55.724;37.612;2022-10-15T01:10:05;8.00;89.60
42095;DHT22;27753;55.724;37.612;2022-10-15T01:12:40;8.00;89.80
42095;DHT22;27753;55.724;37.612;2022-10-15T01:15:36;8.10;89.90
42095;DHT22;27753;55.724;37.612;2022-10-15T01:18:13;8.10;90.00
42095;DHT22;27753;55.724;37.612;2022-10-15T01:31:51;8.00;90.20
42095;DHT22;27753;55.724;37.612;2022-10-15T01:39:40;8.00;90.10
42095;DHT22;27753;55.724;37.612;2022-10-15T01:42:15;8.00;90.20
42095;DHT22;27753;55.724;37.612;2022-10-15T01:44:48;7.90;90.20
42095;DHT22;27753;55.724;37.612;2022-10-15T01:47:23;8.00;90.20
42095;DHT22;27753;55.724;37.612;2022-10-15T01:49:52;8.00;90.10
42095;DHT22;27753;55.724;37.612;2022-10-15T01:52:22;7.90;90.10
42095;DHT22;27753;55.724;37.612;2022-10-15T01:54:51;7.90;90.20
42095;DHT22;27753;55.724;37.612;2022-10-15T01:57:19;7.90;90.20
42095;DHT22;27753;55.724;37.612;2022-10-15T01:59:45;7.90;90.20
42095;DHT22;27753;55.724;37.612;2022-10-15T02:02:12;7.90;90.20
42095;DHT22;27753;55.724;37.612;2022-10-15T02:04:38;7.90;90.20
42095;DHT22;27753;55.724;37.612;2022-10-15T02:09:45;8.00;90.00
42095;DHT22;27753;55.724;37.612;2022-10-15T02:20:47;7.90;90.00
42095;DHT22;27753;55.724;37.612;2022-10-15T02:23:21;7.90;89.90
42095;DHT22;27753;55.724;37.612;2022-10-15T02:25:50;8.00;89.70
42095;DHT22;27753;55.724;37.612;2022-10-15T02:28:17;7.90;89.50
42095;DHT22;27753;55.724;37.612;2022-10-15T02:30:46;7.90;89.50
42095;DHT22;27753;55.724;37.612;2022-10-15T02:33:14;7.90;89.50
42095;DHT22;27753;55.724;37.612;2022-10-15T02:35:42;7.80;89.40
42095;DHT22;27753;55.724;37.612;2022-10-15T02:38:09;7.80;89.60
42095;DHT22;27753;55.724;37.612;2022-10-15T02:40:38;7.90;89.80
42095;DHT22;27753;55.724;37.612;2022-10-15T02:43:09;7.90;89.70
42095;DHT22;27753;55.724;37.612;2022-10-15T02:45:36;7.80;89.60
42095;DHT22;27753;55.724;37.612;2022-10-15T02:48:02;7.80;89.70
42095;DHT22;27753;55.724;37.612;2022-10-15T02:50:28;7.80;89.70
42095;DHT22;27753;55.724;37.612;2022-10-15T02:52:53;7.90;89.90
42095;DHT22;27753;55.724;37.612;2022-10-15T02:55:19;7.80;89.90
42095;DHT22;27753;55.724;37.612;2022-10-15T02:57:45;7.90;89.90
42095;DHT22;27753;55.724;37.612;2022-10-15T03:00:11;7.90;90.00
42095;DHT22;27753;55.724;37.612;2022-10-15T03:02:37;7.90;89.90
42095;DHT22;27753;55.724;37.612;2022-10-15T03:05:03;7.90;89.70
42095;DHT22;27753;55.724;37.612;2022-10-15T03:07:29;7.90;89.50
42095;DHT22;27753;55.724;37.612;2022-10-15T03:09:55;7.90;89.50
42095;DHT22;27753;55.724;37.612;2022-10-15T03:12:21;7.90;89.40
42095;DHT22;27753;55.724;37.612;2022-10-15T03:14:48;7.90;89.40
42095;DHT22;27753;55.724;37.612;2022-10-15T03:17:14;7.90;89.30
42095;DHT22;27753;55.724;37.612;2022-10-15T03:19:40;7.80;89.20
42095;DHT22;27753;55.724;37.612;2022-10-15T03:22:06;7.90;89.10
42095;DHT22;27753;55.724;37.612;2022-10-15T03:24:31;7.80;88.80
42095;DHT22;27753;55.724;37.612;2022-10-15T03:26:57;7.80;88.90
42095;DHT22;27753;55.724;37.612;2022-10-15T03:29:23;7.80;89.00
42095;DHT22;27753;55.724;37.612;2022-10-15T03:31:49;7.80;88.90
42095;DHT22;27753;55.724;37.612;2022-10-15T03:34:15;7.80;88.80
42095;DHT22;27753;55.724;37.612;2022-10-15T03:36:41;7.90;88.70
42095;DHT22;27753;55.724;37.612;2022-10-15T03:39:06;7.90;88.70
42095;DHT22;27753;55.724;37.612;2022-10-15T03:41:33;7.90;88.70
42095;DHT22;27753;55.724;37.612;2022-10-15T03:44:04;7.90;88.80
42095;DHT22;27753;55.724;37.612;2022-10-15T03:46:30;7.90;88.90
42095;DHT22;27753;55.724;37.612;2022-10-15T03:48:56;7.90;88.80
42095;DHT22;27753;55.724;37.612;2022-10-15T03:51:22;7.90;88.70
42095;DHT22;27753;55.724;37.612;2022-10-15T03:53:48;7.90;88.60
42095;DHT22;27753;55.724;37.612;2022-10-15T03:56:15;7.90;88.60
42095;DHT22;27753;55.724;37.612;2022-10-15T03:58:41;7.90;88.40
42095;DHT22;27753;55.724;37.612;2022-10-15T04:01:11;7.90;88.30
42095;DHT22;27753;55.724;37.612;2022-10-15T04:03:37;8.00;88.10
42095;DHT22;27753;55.724;37.612;2022-10-15T04:06:03;8.00;87.90
42095;DHT22;27753;55.724;37.612;2022-10-15T04:08:29;8.00;87.60
42095;DHT22;27753;55.724;37.612;2022-10-15T04:10:55;8.00;87.60
42095;DHT22;27753;55.724;37.612;2022-10-15T04:13:21;8.00;87.60
42095;DHT22;27753;55.724;37.612;2022-10-15T04:15:47;8.00;87.70
42095;DHT22;27753;55.724;37.612;2022-10-15T04:18:13;8.00;87.70
42095;DHT22;27753;55.724;37.612;2022-10-15T04:20:39;8.00;87.60
42095;DHT22;27753;55.724;37.612;2022-10-15T04:23:07;8.00;87.70
42095;DHT22;27753;55.724;37.612;2022-10-15T04:25:34;8.00;87.60
42095;DHT22;27753;55.724;37.612;2022-10-15T04:28:00;8.10;87.60
42095;DHT22;27753;55.724;37.612;2022-10-15T04:30:26;8.10;87.60
42095;DHT22;27753;55.724;37.612;2022-10-15T04:32:52;8.10;87.60
42095;DHT22;27753;55.724;37.612;2022-10-15T04:35:18;8.10;87.80
42095;DHT22;27753;55.724;37.612;2022-10-15T04:37:45;8.10;87.70
42095;DHT22;27753;55.724;37.612;2022-10-15T04:40:12;8.10;87.50
42095;DHT22;27753;55.724;37.612;2022-10-15T04:42:38;8.10;87.20
42095;DHT22;27753;55.724;37.612;2022-10-15T04:45:05;8.10;86.60
42095;DHT22;27753;55.724;37.612;2022-10-15T04:47:31;8.10;86.50
42095;DHT22;27753;55.724;37.612;2022-10-15T04:49:57;8.20;86.40
42095;DHT22;27753;55.724;37.612;2022-10-15T04:52:25;8.10;86.30
42095;DHT22;27753;55.724;37.612;2022-10-15T04:54:51;8.20;86.60
42095;DHT22;27753;55.724;37.612;2022-10-15T04:57:17;8.20;86.40
42095;DHT22;27753;55.724;37.612;2022-10-15T04:59:44;8.20;86.40
42095;DHT22;27753;55.724;37.612;2022-10-15T05:02:10;8.20;86.10
42095;DHT22;27753;55.724;37.612;2022-10-15T05:04:36;8.30;85.50
42095;DHT22;27753;55.724;37.612;2022-10-15T05:07:02;8.30;85.20
42095;DHT22;27753;55.724;37.612;2022-10-15T05:09:33;8.30;85.10
42095;DHT22;27753;55.724;37.612;2022-10-15T05:11:59;8.30;85.10
42095;DHT22;27753;55.724;37.612;2022-10-15T05:14:25;8.30;85.00
42095;DHT22;27753;55.724;37.612;2022-10-15T05:16:51;8.40;84.90
42095;DHT22;27753;55.724;37.612;2022-10-15T05:19:17;8.40;84.90
42095;DHT22;27753;55.724;37.612;2022-10-15T05:21:43;8.40;84.90
42095;DHT22;27753;55.724;37.612;2022-10-15T05:24:09;8.40;84.90
42095;DHT22;27753;55.724;37.612;2022-10-15T05:26:36;8.30;84.70
42095;DHT22;27753;55.724;37.612;2022-10-15T05:29:02;8.30;84.90
42095;DHT22;27753;55.724;37.612;2022-10-15T05:31:30;8.30;84.70
42095;DHT22;27753;55.724;37.612;2022-10-15T05:33:56;8.30;84.70
42095;DHT22;27753;55.724;37.612;2022-10-15T05:36:25;8.30;84.90
42095;DHT22;27753;55.724;37.612;2022-10-15T05:38:56;8.40;84.90
42095;DHT22;27753;55.724;37.612;2022-10-15T05:41:23;8.40;84.70
42095;DHT22;27753;55.724;37.612;2022-10-15T05:43:52;8.50;84.70
42095;DHT22;27753;55.724;37.612;2022-10-15T05:46:19;8.50;84.70
42095;DHT22;27753;55.724;37.612;2022-10-15T05:48:53;8.50;84.90
42095;DHT22;27753;55.724;37.612;2022-10-15T05:51:19;8.60;84.30
42095;DHT22;27753;55.724;37.612;2022-10-15T05:53:45;8.60;83.90
42095;DHT22;27753;55.724;37.612;2022-10-15T05:56:12;8.60;83.60
42095;DHT22;27753;55.724;37.612;2022-10-15T05:58:38;8.70;83.60
42095;DHT22;27753;55.724;37.612;2022-10-15T06:01:07;8.70;83.40
42095;DHT22;27753;55.724;37.612;2022-10-15T06:03:37;8.70;83.50
42095;DHT22;27753;55.724;37.612;2022-10-15T06:06:03;8.80;83.30
42095;DHT22;27753;55.724;37.612;2022-10-15T06:08:30;8.80;83.20
42095;DHT22;27753;55.724;37.612;2022-10-15T06:11:02;8.80;83.10
42095;DHT22;27753;55.724;37.612;2022-10-15T06:13:28;8.80;83.00
42095;DHT22;27753;55.724;37.612;2022-10-15T06:15:57;8.70;83.70
42095;DHT22;27753;55.724;37.612;2022-10-15T06:18:22;8.80;83.30
42095;DHT22;27753;55.724;37.612;2022-10-15T06:20:52;8.70;83.40
42095;DHT22;27753;55.724;37.612;2022-10-15T06:23:18;8.70;83.40
42095;DHT22;27753;55.724;37.612;2022-10-15T06:25:44;8.70;83.70
42095;DHT22;27753;55.724;37.612;2022-10-15T06:28:10;8.80;83.80
42095;DHT22;27753;55.724;37.612;2022-10-15T06:30:36;8.80;83.70
42095;DHT22;27753;55.724;37.612;2022-10-15T06:33:02;8.80;83.50
42095;DHT22;27753;55.724;37.612;2022-10-15T06:35:28;8.90;83.60
42095;DHT22;27753;55.724;37.612;2022-10-15T06:38:02;9.00;83.30
42095;DHT22;27753;55.724;37.612;2022-10-15T06:40:29;9.00;82.50
42095;DHT22;27753;55.724;37.612;2022-10-15T06:43:03;9.00;82.50
42095;DHT22;27753;55.724;37.612;2022-10-15T06:45:29;9.00;81.90
42095;DHT22;27753;55.724;37.612;2022-10-15T06:47:54;8.90;81.40
42095;DHT22;27753;55.724;37.612;2022-10-15T06:50:20;8.90;80.80
42095;DHT22;27753;55.724;37.612;2022-10-15T06:52:46;8.90;80.70
42095;DHT22;27753;55.724;37.612;2022-10-15T06:55:13;8.80;80.30
42095;DHT22;27753;55.724;37.612;2022-10-15T06:57:39;8.90;80.40
42095;DHT22;27753;55.724;37.612;2022-10-15T07:00:05;8.90;80.30
42095;DHT22;27753;55.724;37.612;2022-10-15T07:02:33;9.00;80.20
42095;DHT22;27753;55.724;37.612;2022-10-15T07:04:59;9.10;80.00
42095;DHT22;27753;55.724;37.612;2022-10-15T07:07:25;9.20;79.70
42095;DHT22;27753;55.724;37.612;2022-10-15T07:09:51;9.20;79.50
42095;DHT22;27753;55.724;37.612;2022-10-15T07:12:18;9.30;79.40
42095;DHT22;27753;55.724;37.612;2022-10-15T07:14:47;9.30;79.30
42095;DHT22;27753;55.724;37.612;2022-10-15T07:17:14;9.30;79.30
42095;DHT22;27753;55.724;37.612;2022-10-15T07:19:40;9.40;79.10
42095;DHT22;27753;55.724;37.612;2022-10-15T07:22:06;9.40;78.80
42095;DHT22;27753;55.724;37.612;2022-10-15T07:24:32;9.50;78.60
42095;DHT22;27753;55.724;37.612;2022-10-15T07:26:58;9.50;78.40
42095;DHT22;27753;55.724;37.612;2022-10-15T07:29:24;9.60;78.10
42095;DHT22;27753;55.724;37.612;2022-10-15T07:31:50;9.60;78.00
42095;DHT22;27753;55.724;37.612;2022-10-15T07:34:16;9.70;77.60
42095;DHT22;27753;55.724;37.612;2022-10-15T07:36:42;9.60;77.20
42095;DHT22;27753;55.724;37.612;2022-10-15T07:39:08;9.60;77.30
42095;DHT22;27753;55.724;37.612;2022-10-15T07:41:35;9.60;77.20
42095;DHT22;27753;55.724;37.612;2022-10-15T07:44:01;9.60;77.30
42095;DHT22;27753;55.724;37.612;2022-10-15T07:46:31;9.70;77.00
42095;DHT22;27753;55.724;37.612;2022-10-15T07:49:00;9.70;76.40
42095;DHT22;27753;55.724;37.612;2022-10-15T07:51:25;9.70;77.10
42095;DHT22;27753;55.724;37.612;2022-10-15T07:54:00;9.80;76.40
42095;DHT22;27753;55.724;37.612;2022-10-15T07:56:29;9.90;76.40
42095;DHT22;27753;55.724;37.612;2022-10-15T07:58:55;9.90;76.30
42095;DHT22;27753;55.724;37.612;2022-10-15T08:01:21;9.90;76.00
42095;DHT22;27753;55.724;37.612;2022-10-15T08:03:47;10.00;76.00
42095;DHT22;27753;55.724;37.612;2022-10-15T08:06:17;10.00;76.00
42095;DHT22;27753;55.724;37.612;2022-10-15T08:08:43;10.10;75.80
42095;DHT22;27753;55.724;37.612;2022-10-15T08:11:12;10.20;75.00
42095;DHT22;27753;55.724;37.612;2022-10-15T08:13:42;10.20;74.80
42095;DHT22;27753;55.724;37.612;2022-10-15T08:16:13;10.20;74.60
42095;DHT22;27753;55.724;37.612;2022-10-15T08:18:39;10.30;74.30
42095;DHT22;27753;55.724;37.612;2022-10-15T08:21:06;10.30;73.40
42095;DHT22;27753;55.724;37.612;2022-10-15T08:23:33;10.30;73.40
42095;DHT22;27753;55.724;37.612;2022-10-15T08:26:00;10.40;73.20
42095;DHT22;27753;55.724;37.612;2022-10-15T08:28:30;10.50;73.10
42095;DHT22;27753;55.724;37.612;2022-10-15T08:30:57;10.50;73.00
42095;DHT22;27753;55.724;37.612;2022-10-15T08:33:24;10.50;72.60
42095;DHT22;27753;55.724;37.612;2022-10-15T08:35:51;10.50;72.60
42095;DHT22;27753;55.724;37.612;2022-10-15T08:38:17;10.60;72.60
42095;DHT22;27753;55.724;37.612;2022-10-15T08:40:55;10.60;72.40
42095;DHT22;27753;55.724;37.612;2022-10-15T08:43:26;10.60;72.50
42095;DHT22;27753;55.724;37.612;2022-10-15T08:45:56;10.50;71.50
42095;DHT22;27753;55.724;37.612;2022-10-15T08:48:32;10.40;71.70
42095;DHT22;27753;55.724;37.612;2022-10-15T08:51:02;10.50;72.00
42095;DHT22;27753;55.724;37.612;2022-10-15T08:53:38;10.50;72.10
42095;DHT22;27753;55.724;37.612;2022-10-15T08:56:23;10.70;71.50
42095;DHT22;27753;55.724;37.612;2022-10-15T08:59:13;10.60;71.20
42095;DHT22;27753;55.724;37.612;2022-10-15T09:01:52;10.70;71.60
42095;DHT22;27753;55.724;37.612;2022-10-15T09:06:51;10.80;71.00
42095;DHT22;27753;55.724;37.612;2022-10-15T09:09:47;10.90;70.60
42095;DHT22;27753;55.724;37.612;2022-10-15T09:12:37;11.00;70.40
42095;DHT22;27753;55.724;37.612;2022-10-15T09:15:11;11.00;70.70
42095;DHT22;27753;55.724;37.612;2022-10-15T09:17:38;11.10;70.80
42095;DHT22;27753;55.724;37.612;2022-10-15T09:20:12;11.20;70.50
42095;DHT22;27753;55.724;37.612;2022-10-15T09:22:39;11.30;70.20
42095;DHT22;27753;55.724;37.612;2022-10-15T09:25:19;11.30;70.00
42095;DHT22;27753;55.724;37.612;2022-10-15T09:27:47;11.30;69.70
42095;DHT22;27753;55.724;37.612;2022-10-15T09:32:47;11.20;69.90
42095;DHT22;27753;55.724;37.612;2022-10-15T09:35:29;11.10;69.20
42095;DHT22;27753;55.724;37.612;2022-10-15T09:43:48;10.70;69.90
42095;DHT22;27753;55.724;37.612;2022-10-15T09:46:16;10.60;70.30
42095;DHT22;27753;55.724;37.612;2022-10-15T09:52:06;10.80;70.60
42095;DHT22;27753;55.724;37.612;2022-10-15T09:57:51;10.60;70.50
42095;DHT22;27753;55.724;37.612;2022-10-15T10:00:19;10.40;71.40
42095;DHT22;27753;55.724;37.612;2022-10-15T10:03:06;10.30;71.60
42095;DHT22;27753;55.724;37.612;2022-10-15T10:05:35;10.30;72.10
42095;DHT22;27753;55.724;37.612;2022-10-15T10:08:13;10.40;72.30
42095;DHT22;27753;55.724;37.612;2022-10-15T10:10:41;10.40;72.50
42095;DHT22;27753;55.724;37.612;2022-10-15T10:13:23;10.50;72.70
42095;DHT22;27753;55.724;37.612;2022-10-15T10:15:54;10.50;72.40
42095;DHT22;27753;55.724;37.612;2022-10-15T10:18:23;10.50;72.40
42095;DHT22;27753;55.724;37.612;2022-10-15T10:20:58;10.60;72.70
42095;DHT22;27753;55.724;37.612;2022-10-15T10:23:30;10.70;72.50
42095;DHT22;27753;55.724;37.612;2022-10-15T10:26:00;10.70;72.40
42095;DHT22;27753;55.724;37.612;2022-10-15T10:28:51;10.80;71.60
42095;DHT22;27753;55.724;37.612;2022-10-15T10:31:29;10.80;71.80
42095;DHT22;27753;55.724;37.612;2022-10-15T10:33:55;10.90;71.00
42095;DHT22;27753;55.724;37.612;2022-10-15T10:36:32;10.80;71.40
42095;DHT22;27753;55.724;37.612;2022-10-15T10:39:16;10.80;71.40
42095;DHT22;27753;55.724;37.612;2022-10-15T10:44:31;10.80;71.70
42095;DHT22;27753;55.724;37.612;2022-10-15T10:52:30;10.90;71.60
42095;DHT22;27753;55.724;37.612;2022-10-15T11:00:29;11.00;71.20
42095;DHT22;27753;55.724;37.612;2022-10-15T11:02:58;11.10;71.40
42095;DHT22;27753;55.724;37.612;2022-10-15T11:05:26;11.20;71.10
42095;DHT22;27753;55.724;37.612;2022-10-15T11:16:10;11.20;71.20
42095;DHT22;27753;55.724;37.612;2022-10-15T11:19:28;11.20;71.00
42095;DHT22;27753;55.724;37.612;2022-10-15T11:27:55;11.40;70.30
42095;DHT22;27753;55.724;37.612;2022-10-15T11:31:00;11.50;70.00
42095;DHT22;27753;55.724;37.612;2022-10-15T11:33:54;11.60;69.70
42095;DHT22;27753;55.724;37.612;2022-10-15T11:36:50;11.70;69.50
42095;DHT22;27753;55.724;37.612;2022-10-15T11:47:53;11.80;69.00
42095;DHT22;27753;55.724;37.612;2022-10-15T11:58:08;11.80;69.00
42095;DHT22;27753;55.724;37.612;2022-10-15T12:00:48;11.90;68.90
42095;DHT22;27753;55.724;37.612;2022-10-15T12:03:18;12.00;69.00
42095;DHT22;27753;55.724;37.612;2022-10-15T12:05:52;12.10;68.60
42095;DHT22;27753;55.724;37.612;2022-10-15T12:08:20;12.10;68.30
42095;DHT22;27753;55.724;37.612;2022-10-15T12:16:59;12.00;68.50
42095;DHT22;27753;55.724;37.612;2022-10-15T12:19:58;11.80;68.80
42095;DHT22;27753;55.724;37.612;2022-10-15T12:22:38;11.70;68.90
42095;DHT22;27753;55.724;37.612;2022-10-15T12:25:05;11.70;69.20
42095;DHT22;27753;55.724;37.612;2022-10-15T12:27:33;11.70;69.20
42095;DHT22;27753;55.724;37.612;2022-10-15T12:32:36;11.60;69.60
42095;DHT22;27753;55.724;37.612;2022-10-15T12:35:21;11.60;69.60
42095;DHT22;27753;55.724;37.612;2022-10-15T12:37:51;11.50;69.80
42095;DHT22;27753;55.724;37.612;2022-10-15T12:40:33;11.50;69.50
42095;DHT22;27753;55.724;37.612;2022-10-15T12:43:12;11.50;69.10
42095;DHT22;27753;55.724;37.612;2022-10-15T12:45:47;11.50;69.30
42095;DHT22;27753;55.724;37.612;2022-10-15T12:50:44;11.20;69.90
42095;DHT22;27753;55.724;37.612;2022-10-15T12:58:37;11.00;70.70
42095;DHT22;27753;55.724;37.612;2022-10-15T13:03:53;10.90;71.60
42095;DHT22;27753;55.724;37.612;2022-10-15T13:09:27;11.00;71.30
42095;DHT22;27753;55.724;37.612;2022-10-15T13:11:55;10.80;71.40
42095;DHT22;27753;55.724;37.612;2022-10-15T13:14:37;10.60;72.20
42095;DHT22;27753;55.724;37.612;2022-10-15T13:17:14;10.60;72.50
42095;DHT22;27753;55.724;37.612;2022-10-15T13:19:59;10.50;72.80
42095;DHT22;27753;55.724;37.612;2022-10-15T13:22:30;10.40;73.10
42095;DHT22;27753;55.724;37.612;2022-10-15T13:24:57;10.30;73.40
42095;DHT22;27753;55.724;37.612;2022-10-15T13:29:55;10.30;74.30
42095;DHT22;27753;55.724;37.612;2022-10-15T13:32:22;10.30;74.60
42095;DHT22;27753;55.724;37.612;2022-10-15T13:34:49;10.30;75.00
42095;DHT22;27753;55.724;37.612;2022-10-15T13:37:19;10.20;74.80
42095;DHT22;27753;55.724;37.612;2022-10-15T13:39:50;10.20;75.00
42095;DHT22;27753;55.724;37.612;2022-10-15T13:42:22;10.30;75.50
42095;DHT22;27753;55.724;37.612;2022-10-15T13:45:00;10.30;75.70
42095;DHT22;27753;55.724;37.612;2022-10-15T13:47:40;10.30;75.50
42095;DHT22;27753;55.724;37.612;2022-10-15T13:52:53;10.30;76.40
42095;DHT22;27753;55.724;37.612;2022-10-15T13:55:29;10.30;75.60
42095;DHT22;27753;55.724;37.612;2022-10-15T13:58:17;10.20;75.30
42095;DHT22;27753;55.724;37.612;2022-10-15T14:01:21;10.10;76.00
42095;DHT22;27753;55.724;37.612;2022-10-15T14:03:54;10.10;76.60
42095;DHT22;27753;55.724;37.612;2022-10-15T14:08:50;10.10;76.80
42095;DHT22;27753;55.724;37.612;2022-10-15T14:11:16;10.00;76.50
42095;DHT22;27753;55.724;37.612;2022-10-15T14:13:54;10.00;76.40
42095;DHT22;27753;55.724;37.612;2022-10-15T14:16:35;10.00;76.20
42095;DHT22;27753;55.724;37.612;2022-10-15T14:21:30;9.90;76.60
42095;DHT22;27753;55.724;37.612;2022-10-15T14:24:11;9.90;77.00
42095;DHT22;27753;55.724;37.612;2022-10-15T14:26:37;9.80;77.50
42095;DHT22;27753;55.724;37.612;2022-10-15T14:29:27;9.80;77.00
42095;DHT22;27753;55.724;37.612;2022-10-15T14:31:54;9.70;76.80
42095;DHT22;27753;55.724;37.612;2022-10-15T14:36:59;9.70;77.50
42095;DHT22;27753;55.724;37.612;2022-10-15T14:39:32;9.70;77.80
42095;DHT22;27753;55.724;37.612;2022-10-15T14:42:04;9.80;77.80
42095;DHT22;27753;55.724;37.612;2022-10-15T14:47:38;9.80;79.00
42095;DHT22;27753;55.724;37.612;2022-10-15T14:50:05;9.90;77.80
42095;DHT22;27753;55.724;37.612;2022-10-15T14:52:31;9.80;77.80
42095;DHT22;27753;55.724;37.612;2022-10-15T14:55:11;9.80;78.60
42095;DHT22;27753;55.724;37.612;2022-10-15T14:57:40;9.80;79.70
42095;DHT22;27753;55.724;37.612;2022-10-15T15:02:48;9.70;79.30
42095;DHT22;27753;55.724;37.612;2022-10-15T15:05:20;9.70;78.90
42095;DHT22;27753;55.724;37.612;2022-10-15T15:07:47;9.70;78.40
42095;DHT22;27753;55.724;37.612;2022-10-15T15:10:13;9.70;79.40
42095;DHT22;27753;55.724;37.612;2022-10-15T15:12:41;9.70;78.50
42095;DHT22;27753;55.724;37.612;2022-10-15T15:15:18;9.70;78.50
42095;DHT22;27753;55.724;37.612;2022-10-15T15:17:44;9.70;78.60
42095;DHT22;27753;55.724;37.612;2022-10-15T15:20:11;9.60;79.10
42095;DHT22;27753;55.724;37.612;2022-10-15T15:22:38;9.70;79.00
42095;DHT22;27753;55.724;37.612;2022-10-15T15:25:18;9.70;79.50
42095;DHT22;27753;55.724;37.612;2022-10-15T15:27:44;9.70;79.30
42095;DHT22;27753;55.724;37.612;2022-10-15T15:30:20;9.70;79.10
42095;DHT22;27753;55.724;37.612;2022-10-15T15:32:47;9.70;79.20
42095;DHT22;27753;55.724;37.612;2022-10-15T15:35:22;9.70;79.40
42095;DHT22;27753;55.724;37.612;2022-10-15T15:37:49;9.60;79.40
42095;DHT22;27753;55.724;37.612;2022-10-15T15:40:15;9.60;79.50
42095;DHT22;27753;55.724;37.612;2022-10-15T15:42:41;9.60;79.90
42095;DHT22;27753;55.724;37.612;2022-10-15T15:45:20;9.50;80.60
42095;DHT22;27753;55.724;37.612;2022-10-15T15:47:46;9.50;80.20
42095;DHT22;27753;55.724;37.612;2022-10-15T15:50:16;9.50;80.30
42095;DHT22;27753;55.724;37.612;2022-10-15T15:52:42;9.40;80.30
42095;DHT22;27753;55.724;37.612;2022-10-15T15:55:09;9.30;80.80
42095;DHT22;27753;55.724;37.612;2022-10-15T15:57:36;9.20;81.20
42095;DHT22;27753;55.724;37.612;2022-10-15T16:00:04;9.20;82.00
42095;DHT22;27753;55.724;37.612;2022-10-15T16:02:34;9.10;82.40
42095;DHT22;27753;55.724;37.612;2022-10-15T16:05:00;9.10;82.40
42095;DHT22;27753;55.724;37.612;2022-10-15T16:07:30;9.00;82.40
42095;DHT22;27753;55.724;37.612;2022-10-15T16:09:56;8.90;82.50
42095;DHT22;27753;55.724;37.612;2022-10-15T16:12:25;8.90;82.70
42095;DHT22;27753;55.724;37.612;2022-10-15T16:14:54;8.90;82.80
42095;DHT22;27753;55.724;37.612;2022-10-15T16:17:20;8.80;82.90
42095;DHT22;27753;55.724;37.612;2022-10-15T16:19:46;8.80;82.90
42095;DHT22;27753;55.724;37.612;2022-10-15T16:22:12;8.80;83.10
42095;DHT22;27753;55.724;37.612;2022-10-15T16:24:40;8.80;83.20
42095;DHT22;27753;55.724;37.612;2022-10-15T16:27:05;8.80;83.30
42095;DHT22;27753;55.724;37.612;2022-10-15T16:29:31;8.80;83.80
42095;DHT22;27753;55.724;37.612;2022-10-15T16:31:57;8.70;83.70
42095;DHT22;27753;55.724;37.612;2022-10-15T16:34:23;8.70;84.50
42095;DHT22;27753;55.724;37.612;2022-10-15T16:36:49;8.70;84.50
42095;DHT22;27753;55.724;37.612;2022-10-15T16:39:15;8.70;84.60
42095;DHT22;27753;55.724;37.612;2022-10-15T16:41:41;8.60;84.60
42095;DHT22;27753;55.724;37.612;2022-10-15T16:44:07;8.60;84.70
42095;DHT22;27753;55.724;37.612;2022-10-15T16:46:33;8.60;84.60
42095;DHT22;27753;55.724;37.612;2022-10-15T16:49:07;8.60;84.60
42095;DHT22;27753;55.724;37.612;2022-10-15T16:51:33;8.60;84.70
42095;DHT22;27753;55.724;37.612;2022-10-15T16:53:59;8.50;84.80
42095;DHT22;27753;55.724;37.612;2022-10-15T16:56:30;8.50;84.90
42095;DHT22;27753;55.724;37.612;2022-10-15T16:58:56;8.50;84.90
42095;DHT22;27753;55.724;37.612;2022-10-15T17:01:25;8.50;84.90
42095;DHT22;27753;55.724;37.612;2022-10-15T17:03:56;8.40;85.50
42095;DHT22;27753;55.724;37.612;2022-10-15T17:06:24;8.40;85.90
42095;DHT22;27753;55.724;37.612;2022-10-15T17:08:52;8.40;85.90
42095;DHT22;27753;55.724;37.612;2022-10-15T17:11:22;8.30;86.30
42095;DHT22;27753;55.724;37.612;2022-10-15T17:13:49;8.30;86.60
42095;DHT22;27753;55.724;37.612;2022-10-15T17:16:17;8.20;86.50
42095;DHT22;27753;55.724;37.612;2022-10-15T17:18:45;8.20;86.60
42095;DHT22;27753;55.724;37.612;2022-10-15T17:21:14;8.20;86.30
42095;DHT22;27753;55.724;37.612;2022-10-15T17:23:43;8.20;86.50
42095;DHT22;27753;55.724;37.612;2022-10-15T17:26:14;8.20;87.00
42095;DHT22;27753;55.724;37.612;2022-10-15T17:28:43;8.10;86.70
42095;DHT22;27753;55.724;37.612;2022-10-15T17:31:11;8.20;86.90
42095;DHT22;27753;55.724;37.612;2022-10-15T17:33:44;8.10;87.10
42095;DHT22;27753;55.724;37.612;2022-10-15T17:36:14;8.10;87.40
42095;DHT22;27753;55.724;37.612;2022-10-15T17:38:40;8.00;87.10
42095;DHT22;27753;55.724;37.612;2022-10-15T17:41:15;8.10;87.10
42095;DHT22;27753;55.724;37.612;2022-10-15T17:43:42;8.10;87.00
42095;DHT22;27753;55.724;37.612;2022-10-15T17:46:11;8.10;86.80
42095;DHT22;27753;55.724;37.612;2022-10-15T17:48:37;8.10;87.40
42095;DHT22;27753;55.724;37.612;2022-10-15T17:51:05;8.10;86.80
42095;DHT22;27753;55.724;37.612;2022-10-15T17:53:32;8.10;86.70
42095;DHT22;27753;55.724;37.612;2022-10-15T17:55:58;8.10;86.50
42095;DHT22;27753;55.724;37.612;2022-10-15T17:58:25;8.10;85.90
42095;DHT22;27753;55.724;37.612;2022-10-15T18:00:55;8.10;85.50